createdAt,value
2022-11-19T00:03:23.127Z,23.2
2022-11-19T00:09:00.999Z,23.1
2022-11-19T00:14:44.304Z,22.9
2022-11-19T00:19:51.471Z,22.9
2022-11-19T00:25:29.511Z,22.9
2022-11-19T00:31:22.152Z,22.9
2022-11-19T00:36:44.480Z,22.9
2022-11-19T00:42:07.509Z,22.9
2022-11-19T00:47:45.731Z,22.9
2022-11-19T00:53:23.607Z,22.9
2022-11-19T00:58:45.752Z,22.7
2022-11-19T01:04:24.054Z,22.7
2022-11-19T01:09:46.978Z,23.3
2022-11-19T01:15:24.398Z,23.1
2022-11-19T01:21:02.159Z,23
2022-11-19T01:26:24.757Z,22.9
2022-11-19T01:31:51.279Z,22.9
2022-11-19T01:37:28.823Z,22.9
2022-11-19T01:43:06.853Z,22.9
2022-11-19T01:48:28.459Z,22.9
2022-11-19T01:54:06.590Z,22.9
2022-11-19T01:59:44.591Z,22.9
2022-11-19T02:05:22.712Z,22.8
2022-11-19T02:10:45.557Z,22.7
2022-11-19T02:16:23.011Z,22.6
2022-11-19T02:22:00.108Z,23.2
2022-11-19T02:27:42.797Z,23.1
2022-11-19T02:33:03.689Z,22.9
2022-11-19T02:38:41.310Z,22.9
2022-11-19T02:44:03.871Z,22.8
2022-11-19T02:49:26.672Z,22.8
2022-11-19T02:55:03.475Z,22.8
2022-11-19T03:00:26.277Z,22.8
2022-11-19T03:05:49.180Z,22.8
2022-11-19T03:11:26.369Z,22.8
2022-11-19T03:17:03.829Z,22.8
2022-11-19T03:22:25.801Z,22.6
2022-11-19T03:27:32.130Z,22.6
2022-11-19T03:33:09.873Z,23.3
2022-11-19T03:38:47.318Z,23.1
2022-11-19T03:44:25.607Z,22.9
2022-11-19T03:50:02.794Z,22.9
2022-11-19T03:55:42.404Z,22.9
2022-11-19T04:01:25.776Z,22.8
2022-11-19T04:07:03.396Z,22.8
2022-11-19T04:12:40.592Z,22.8
2022-11-19T04:18:02.961Z,22.8
2022-11-19T04:23:25.158Z,22.8
2022-11-19T04:28:47.352Z,22.8
2022-11-19T04:33:54.318Z,22.6
2022-11-19T04:39:31.552Z,22.6
2022-11-19T04:44:53.728Z,23.3
2022-11-19T04:50:16.116Z,23.1
2022-11-19T04:55:59.600Z,22.9
2022-11-19T05:01:39.235Z,22.8
2022-11-19T05:06:45.852Z,22.7
2022-11-19T05:12:24.565Z,22.6
2022-11-19T05:18:06.242Z,22.9
2022-11-19T05:23:44.092Z,23.6
2022-11-19T05:29:29.386Z,23.4
2022-11-19T05:35:11.929Z,23.2
2022-11-19T05:40:49.994Z,23.1
2022-11-19T05:46:27.469Z,22.9
2022-11-19T05:52:05.870Z,22.9
2022-11-19T05:57:44.164Z,22.8
2022-11-19T06:03:22.386Z,23.2
2022-11-19T06:09:00.421Z,23.7
2022-11-19T06:14:42.179Z,23.4
2022-11-19T06:20:19.855Z,23.3
2022-11-19T06:25:44.465Z,23.1
2022-11-19T06:31:22.680Z,23
2022-11-19T06:37:07.062Z,22.9
2022-11-19T06:42:48.503Z,22.9
2022-11-19T06:48:28.502Z,23.4
2022-11-19T06:54:07.435Z,23.8
2022-11-19T06:59:47.442Z,23.4
2022-11-19T07:05:25.722Z,23.3
2022-11-19T07:11:06.101Z,23.1
2022-11-19T07:16:29.349Z,23.1
2022-11-19T07:22:07.674Z,23.1
2022-11-19T07:27:47.563Z,23
2022-11-19T07:33:25.578Z,22.9
2022-11-19T07:39:10.692Z,22.9
2022-11-19T07:44:52.180Z,22.8
2022-11-19T07:50:31.920Z,22.8
2022-11-19T07:55:59.520Z,22.8
2022-11-19T08:01:28.749Z,23.2
2022-11-19T08:07:11.842Z,23.4
2022-11-19T08:12:49.652Z,23.2
2022-11-19T08:18:31.127Z,23.1
2022-11-19T08:24:10.069Z,23
2022-11-19T08:29:50.693Z,22.9
2022-11-19T08:35:29.469Z,22.9
2022-11-19T08:41:08.083Z,22.8
2022-11-19T08:46:46.359Z,22.8
2022-11-19T08:52:24.144Z,22.8
2022-11-19T08:58:01.826Z,22.8
2022-11-19T09:03:43.498Z,22.7
2022-11-19T09:09:27.778Z,22.8
2022-11-19T09:14:50.802Z,22.9
2022-11-19T09:20:33.156Z,23.4
2022-11-19T09:26:10.583Z,23.3
2022-11-19T09:31:53.995Z,23
2022-11-19T09:37:31.887Z,22.9
2022-11-19T09:43:14.060Z,22.9
2022-11-19T09:48:53.992Z,22.8
2022-11-19T09:54:31.379Z,22.8
2022-11-19T10:00:09.441Z,22.7
2022-11-19T10:05:32.137Z,22.6
2022-11-19T10:11:15.904Z,22.5
2022-11-19T10:16:44.219Z,22.4
2022-11-19T10:22:22.075Z,22.4
2022-11-19T10:28:01.144Z,22.3
2022-11-19T10:33:39.186Z,22.3
2022-11-19T10:39:22.789Z,22.2
2022-11-19T10:45:03.753Z,22.1
2022-11-19T10:50:45.471Z,22
2022-11-19T10:56:12.735Z,21.9
2022-11-19T11:01:35.325Z,21.8
2022-11-19T11:07:16.055Z,21.8
2022-11-19T11:12:55.605Z,21.7
2022-11-19T11:18:34.567Z,21.6
2022-11-19T11:24:12.859Z,21.5
2022-11-19T11:29:55.379Z,21.4
2022-11-19T11:35:42.761Z,21.4
2022-11-19T11:40:50.022Z,21.3
2022-11-19T11:46:47.934Z,21.3
2022-11-19T11:57:54.798Z,21.1
2022-11-19T12:03:01.766Z,21
2022-11-19T12:08:43.166Z,20.9
2022-11-19T12:14:27.272Z,20.9
2022-11-19T12:20:05.110Z,20.9
2022-11-19T12:25:28.131Z,20.9
2022-11-19T12:31:04.773Z,20.9
2022-11-19T12:36:42.745Z,20.8
2022-11-19T12:42:22.253Z,20.8
2022-11-19T12:48:01.744Z,20.8
2022-11-19T12:53:39.572Z,20.8
2022-11-19T12:59:23.471Z,20.8
2022-11-19T13:05:01.349Z,20.8
2022-11-19T13:10:27.952Z,20.8
2022-11-19T13:15:34.753Z,20.8
2022-11-19T13:21:12.698Z,20.8
2022-11-19T13:26:50.277Z,20.8
2022-11-19T13:32:28.361Z,20.8
2022-11-19T13:38:11.804Z,20.8
2022-11-19T13:44:15.534Z,20.8
2022-11-19T13:49:55.387Z,20.8
2022-11-19T13:55:37.060Z,20.8
2022-11-19T14:01:14.358Z,20.8
2022-11-19T14:06:52.331Z,20.8
2022-11-19T14:12:35.073Z,20.8
2022-11-19T14:17:42.139Z,20.8
2022-11-19T14:23:09.210Z,20.8
2022-11-19T14:28:32.075Z,20.8
2022-11-19T14:34:10.789Z,20.8
2022-11-19T14:39:49.007Z,20.8
2022-11-19T14:45:31.246Z,20.7
2022-11-19T14:50:54.784Z,20.8
2022-11-19T14:56:33.134Z,20.7
2022-11-19T15:02:11.896Z,20.7
2022-11-19T15:07:54.427Z,20.7
2022-11-19T15:13:33.306Z,20.7
2022-11-19T15:18:55.145Z,20.6
2022-11-19T15:24:17.310Z,20.6
2022-11-19T15:29:30.457Z,20.6
2022-11-19T15:35:30.318Z,20.6
2022-11-19T15:40:52.789Z,20.6
2022-11-19T15:46:31.025Z,20.6
2022-11-19T15:51:40.957Z,20.6
2022-11-19T15:57:06.379Z,20.6
2022-11-19T16:02:29.728Z,20.6
2022-11-19T16:07:52.643Z,20.7
2022-11-19T16:13:01.431Z,20.6
2022-11-19T16:18:29.794Z,20.6
2022-11-19T16:24:08.174Z,20.6
2022-11-19T16:29:50.419Z,20.6
2022-11-19T16:35:29.121Z,20.7
2022-11-19T16:41:13.564Z,20.7
2022-11-19T16:46:36.640Z,20.7
2022-11-19T16:52:14.377Z,20.6
2022-11-19T16:57:40.605Z,20.6
2022-11-19T17:03:24.805Z,20.6
2022-11-19T17:09:02.629Z,20.6
2022-11-19T17:14:24.333Z,20.6
2022-11-19T17:20:08.957Z,20.6
2022-11-19T17:25:36.060Z,20.6
2022-11-19T17:31:13.577Z,20.6
2022-11-19T17:36:40.292Z,20.5
2022-11-19T17:42:18.483Z,20.5
2022-11-19T17:47:37.860Z,20.6
2022-11-19T17:53:00.708Z,20.5
2022-11-19T17:58:38.275Z,20.5
2022-11-19T18:04:18.646Z,20.5
2022-11-19T18:09:41.643Z,20.5
2022-11-19T18:14:34.119Z,20.4
2022-11-19T18:20:14.295Z,20.4
2022-11-19T18:25:53.323Z,20.4
2022-11-19T18:31:20.726Z,20.4
2022-11-19T18:36:44.581Z,20.4
2022-11-19T18:42:24.577Z,20.4
2022-11-19T18:48:09.544Z,20.4
2022-11-19T18:53:50.672Z,20.4
2022-11-19T18:59:36.468Z,20.4
2022-11-19T19:04:48.380Z,20.4
2022-11-19T19:10:01.010Z,20.4
2022-11-19T19:15:40.176Z,20.4
2022-11-19T19:21:08.042Z,20.4
2022-11-19T19:26:55.071Z,20.4
2022-11-19T19:32:23.436Z,20.3
2022-11-19T19:38:03.084Z,20.4
2022-11-19T19:43:48.412Z,20.4
2022-11-19T19:49:28.256Z,20.3
2022-11-19T19:55:07.885Z,20.3
2022-11-19T20:00:32.879Z,20.3
2022-11-19T20:06:12.616Z,20.3
2022-11-19T20:11:56.173Z,20.3
2022-11-19T20:17:25.011Z,20.3
2022-11-19T20:23:03.686Z,20.4
2022-11-19T20:28:44.502Z,20.4
2022-11-19T20:34:24.336Z,21
2022-11-19T20:39:46.503Z,21.8
2022-11-19T20:45:31.533Z,21.8
2022-11-19T20:51:13.473Z,21.7
2022-11-19T20:56:55.403Z,21.6
2022-11-19T21:02:38.588Z,21.6
2022-11-19T21:08:16.417Z,21.5
2022-11-19T21:13:44.055Z,21.4
2022-11-19T21:19:10.792Z,21.2
2022-11-19T21:24:48.218Z,21.9
2022-11-19T21:30:30.990Z,22.5
2022-11-19T21:36:09.854Z,22.3
2022-11-19T21:41:50.356Z,22.1
2022-11-19T21:47:28.784Z,22.7
2022-11-19T21:53:06.664Z,23.3
2022-11-19T21:58:50.172Z,23.3
2022-11-19T22:04:27.736Z,23.6
2022-11-19T22:10:05.721Z,23.9
2022-11-19T22:15:18.724Z,23.6
2022-11-19T22:20:56.631Z,23.2
2022-11-19T22:26:34.675Z,23.6
2022-11-19T22:32:18.803Z,24.2
2022-11-19T22:38:02.946Z,23.9
2022-11-19T22:43:09.566Z,23.6
2022-11-19T22:48:16.629Z,23.4
2022-11-19T22:53:54.686Z,24.1
2022-11-19T22:58:46.558Z,24.4
2022-11-19T23:04:25.497Z,24.1
2022-11-19T23:10:08.412Z,23.9
2022-11-19T23:15:31.245Z,23.6
2022-11-19T23:21:11.848Z,24
2022-11-19T23:26:49.590Z,24.6
2022-11-19T23:32:27.693Z,24.4
2022-11-19T23:38:11.725Z,24.1
2022-11-19T23:43:39.835Z,23.9
2022-11-19T23:49:17.777Z,23.9
2022-11-19T23:54:55.787Z,24.5
